Pagrindinis puslapis
METAR-TAF:

METAR-TAF

Oro uostai :

Asuanas, Egiptas

platuma: 23-58N, ilguma: 032-47E, Aukštis: 200 m

Dabartinis oras

Ataskaita buvo paskelbta 28 minutes, ne 22:00 UTC
Vėjas 5 kt iš Šiaurės/Šiaurės Rytų
Temperatūra 30°C
Drėgmė 14%
Slėgis 1009 hPa
Matomumas 10 km arba daugiau
nėra debesų žemiau 1500 m ir nėra kamuolinių lietaus debesų

METAR: HESN 242200Z 02005KT CAVOK 30/M00 Q1009 NOSIG

Laikas: 00:28 (22:28 UTC)

Prognozė

Ataskaita buvo paskelbta 5 valandos ir 28 minutes, ne 17:00 UTC
Prognozė galioja nuo 24 metu 18 UTC su 25 metu 24 UTC
Vėjas 8 kt iš Šiaurės/Šiaurės Vakarų
Matomumas 10 km arba daugiau
nėra debesų žemiau 1500 m ir nėra kamuolinių lietaus debesų

TAF: HESN 241700Z 2418/2524 33008KT CAVOK

Orai ataskaitas ir orų prognozės (METAR, TAF).

turimą stotys yra geltonos ir raudonos taškus žemėlapyje.

Perkelti pele per norėdami pamatyti stoties vardą.

Tada spustelėkite, norėdami matyti oro stebėjimo ir prognozės.

Norėdami pakeisti žemėlapį: spustelėkite ant žalios mygtukų su juodo kryžiaus žemyn,; žalią mygtuką su brūkšneliu, jei norite nutolinti; arba žalių rodyklių gretimoms žemėlapius.


METAR-TAF: